createdAt,value
2023-03-18T00:02:18.973Z,3.85
2023-03-18T00:05:20.284Z,4.20
2023-03-18T00:08:21.639Z,3.95
2023-03-18T00:11:22.972Z,4.32
2023-03-18T00:14:24.366Z,3.95
2023-03-18T00:17:26.069Z,3.92
2023-03-18T00:20:38.968Z,4.05
2023-03-18T00:23:40.442Z,4.05
2023-03-18T00:26:42.103Z,4.47
2023-03-18T00:29:43.738Z,4.20
2023-03-18T00:32:46.301Z,4.38
2023-03-18T00:35:47.982Z,4.38
2023-03-18T00:38:51.100Z,4.80
2023-03-18T00:41:54.541Z,4.00
2023-03-18T00:44:55.838Z,3.97
2023-03-18T00:47:57.070Z,4.82
2023-03-18T00:50:58.377Z,3.92
2023-03-18T00:54:01.877Z,4.03
2023-03-18T00:57:03.243Z,4.25
2023-03-18T01:00:07.260Z,4.10
2023-03-18T01:03:08.906Z,4.63
2023-03-18T01:06:15.077Z,4.35
2023-03-18T01:09:16.543Z,4.40
2023-03-18T01:12:17.807Z,4.65
2023-03-18T01:15:20.035Z,3.90
2023-03-18T01:18:21.890Z,5.18
2023-03-18T01:21:23.695Z,5.03
2023-03-18T01:24:24.996Z,3.90
2023-03-18T01:27:27.002Z,4.30
2023-03-18T01:30:28.534Z,3.53
2023-03-18T01:33:30.151Z,4.45
2023-03-18T01:36:31.423Z,3.83
2023-03-18T01:39:34.229Z,4.10
2023-03-18T01:42:35.732Z,3.63
2023-03-18T01:45:37.060Z,3.75
2023-03-18T01:48:39.828Z,3.72
2023-03-18T01:51:43.445Z,3.92
2023-03-18T01:55:05.154Z,4.18
2023-03-18T01:58:10.055Z,3.35
2023-03-18T02:01:14.588Z,4.60
2023-03-18T02:04:16.730Z,4.05
2023-03-18T02:07:20.121Z,3.55
2023-03-18T02:10:24.488Z,3.50
2023-03-18T02:13:26.422Z,4.28
2023-03-18T02:16:31.170Z,3.28
2023-03-18T02:19:44.806Z,4.10
2023-03-18T02:22:54.000Z,3.70
2023-03-18T02:26:01.650Z,3.67
2023-03-18T02:29:04.869Z,4.07
2023-03-18T02:32:06.962Z,4.03
2023-03-18T02:35:09.324Z,3.55
2023-03-18T02:38:10.602Z,4.10
2023-03-18T02:41:16.833Z,4.30
2023-03-18T02:44:18.681Z,4.18
2023-03-18T02:47:21.908Z,4.45
2023-03-18T02:50:24.326Z,3.58
2023-03-18T02:53:26.196Z,4.15
2023-03-18T02:56:27.464Z,4.20
2023-03-18T02:59:28.953Z,3.70
2023-03-18T03:02:30.304Z,4.35
2023-03-18T03:05:33.634Z,3.28
2023-03-18T03:08:35.099Z,4.38
2023-03-18T03:11:36.865Z,4.10
2023-03-18T03:14:38.136Z,4.70
2023-03-18T03:17:39.591Z,4.13
2023-03-18T03:20:41.787Z,3.58
2023-03-18T03:23:43.934Z,3.97
2023-03-18T03:26:45.506Z,4.07
2023-03-18T03:29:46.767Z,3.40
2023-03-18T03:32:48.076Z,4.07
2023-03-18T03:35:49.422Z,3.70
2023-03-18T03:38:50.720Z,3.85
2023-03-18T03:41:52.783Z,3.65
2023-03-18T03:44:54.110Z,3.45
2023-03-18T03:47:55.753Z,3.30
2023-03-18T03:50:57.153Z,3.22
2023-03-18T03:53:58.898Z,2.95
2023-03-18T03:57:00.805Z,4.00
2023-03-18T04:00:02.261Z,3.03
2023-03-18T04:03:04.666Z,3.42
2023-03-18T04:06:06.702Z,3.50
2023-03-18T04:09:08.089Z,3.42
2023-03-18T04:12:09.728Z,3.40
2023-03-18T04:15:11.401Z,3.30
2023-03-18T04:18:13.255Z,3.53
2023-03-18T04:21:14.852Z,3.53
2023-03-18T04:24:16.702Z,3.65
2023-03-18T04:27:18.534Z,3.20
2023-03-18T04:30:20.662Z,3.40
2023-03-18T04:33:21.922Z,3.55
2023-03-18T04:36:24.144Z,3.83
2023-03-18T04:39:25.464Z,3.08
2023-03-18T04:42:26.877Z,2.67
2023-03-18T04:45:28.240Z,3.00
2023-03-18T04:48:30.552Z,2.80
2023-03-18T04:51:31.857Z,2.28
2023-03-18T04:54:33.627Z,3.05
2023-03-18T04:57:37.554Z,2.65
2023-03-18T05:00:38.865Z,2.42
2023-03-18T05:03:40.909Z,3.45
2023-03-18T05:06:42.517Z,2.75
2023-03-18T05:09:43.925Z,2.45
2023-03-18T05:12:45.189Z,2.65
2023-03-18T05:15:46.903Z,2.55
2023-03-18T05:18:48.362Z,2.90
2023-03-18T05:21:49.719Z,2.08
2023-03-18T05:24:51.020Z,2.75
2023-03-18T05:27:54.300Z,2.47
2023-03-18T05:30:55.568Z,2.17
2023-03-18T05:33:57.080Z,2.22
2023-03-18T05:36:58.526Z,2.10
2023-03-18T05:39:59.935Z,2.00
2023-03-18T05:43:01.794Z,2.90
2023-03-18T05:46:05.025Z,2.40
2023-03-18T05:49:06.288Z,1.98
2023-03-18T05:52:07.630Z,2.55
2023-03-18T05:55:12.841Z,2.30
2023-03-18T05:58:14.096Z,2.38
2023-03-18T06:01:15.355Z,2.13
2023-03-18T06:04:19.108Z,2.28
2023-03-18T06:07:20.793Z,1.83
2023-03-18T06:10:22.997Z,1.92
2023-03-18T06:13:24.370Z,2.53
2023-03-18T06:16:25.862Z,2.08
2023-03-18T06:19:28.470Z,1.90
2023-03-18T06:22:31.525Z,1.80
2023-03-18T06:25:32.970Z,1.80
2023-03-18T06:28:36.920Z,1.63
2023-03-18T06:31:38.252Z,1.98
2023-03-18T06:34:40.055Z,2.00
2023-03-18T06:37:41.384Z,1.40
2023-03-18T06:40:44.088Z,2.65
2023-03-18T06:43:47.772Z,1.67
2023-03-18T06:46:49.118Z,2.63
2023-03-18T06:49:50.840Z,1.98
2023-03-18T06:52:52.200Z,1.88
2023-03-18T06:55:54.011Z,1.83
2023-03-18T06:58:55.329Z,2.13
2023-03-18T07:01:56.914Z,1.85
2023-03-18T07:05:00.111Z,1.83
2023-03-18T07:08:02.109Z,2.03
2023-03-18T07:11:03.732Z,2.60
2023-03-18T07:14:05.771Z,2.20
2023-03-18T07:17:07.404Z,3.17
2023-03-18T07:20:09.687Z,2.30
2023-03-18T07:23:11.356Z,2.58
2023-03-18T07:26:12.738Z,1.80
2023-03-18T07:29:14.092Z,1.73
2023-03-18T07:32:15.571Z,1.63
2023-03-18T07:35:17.538Z,1.75
2023-03-18T07:38:18.926Z,2.63
2023-03-18T07:41:20.435Z,2.80
2023-03-18T07:44:21.886Z,2.97
2023-03-18T07:47:24.893Z,3.10
2023-03-18T07:50:26.357Z,2.60
2023-03-18T07:53:28.145Z,2.65
2023-03-18T07:56:29.459Z,3.53
2023-03-18T07:59:30.780Z,1.75
2023-03-18T08:02:32.083Z,2.65
2023-03-18T08:05:34.183Z,3.85
2023-03-18T08:08:35.735Z,2.90
2023-03-18T08:11:38.040Z,2.13
2023-03-18T08:14:39.770Z,2.47
2023-03-18T08:17:41.485Z,1.77
2023-03-18T08:20:42.774Z,2.10
2023-03-18T08:23:44.688Z,1.98
2023-03-18T08:26:46.092Z,1.70
2023-03-18T08:29:47.408Z,2.50
2023-03-18T08:32:48.830Z,2.80
2023-03-18T08:35:50.186Z,1.98
2023-03-18T08:38:51.962Z,1.98
2023-03-18T08:41:53.457Z,1.38
2023-03-18T08:44:54.775Z,1.95
2023-03-18T08:47:56.218Z,1.95
2023-03-18T08:50:57.527Z,2.03
2023-03-18T08:53:59.338Z,1.92
2023-03-18T08:57:00.734Z,1.83
2023-03-18T09:00:02.191Z,2.35
2023-03-18T09:03:03.805Z,1.52
2023-03-18T09:06:05.717Z,2.05
2023-03-18T09:09:08.188Z,2.28
2023-03-18T09:12:09.614Z,1.70
2023-03-18T09:15:12.272Z,2.10
2023-03-18T09:18:14.800Z,2.03
2023-03-18T09:21:16.355Z,1.30
2023-03-18T09:24:17.713Z,1.20
2023-03-18T09:27:18.979Z,2.10
2023-03-18T09:30:20.377Z,2.20
2023-03-18T09:33:22.151Z,2.00
2023-03-18T09:36:23.890Z,2.00
2023-03-18T09:39:25.302Z,2.15
2023-03-18T09:42:26.588Z,2.35
2023-03-18T09:45:37.622Z,2.25
2023-03-18T09:48:51.239Z,1.73
2023-03-18T09:52:11.349Z,2.63
2023-03-18T09:55:35.668Z,1.90
2023-03-18T09:58:52.345Z,2.13
2023-03-18T10:01:55.625Z,2.38
2023-03-18T10:04:58.577Z,2.08
2023-03-18T10:08:14.320Z,2.08
2023-03-18T10:11:32.636Z,3.33
2023-03-18T10:14:37.262Z,2.20
2023-03-18T10:17:41.313Z,1.90
2023-03-18T10:20:51.693Z,2.42
2023-03-18T10:23:58.892Z,2.50
2023-03-18T10:27:09.332Z,3.10
2023-03-18T10:30:29.767Z,2.28
2023-03-18T10:33:50.317Z,3.40
2023-03-18T10:37:01.239Z,1.73
2023-03-18T10:40:10.525Z,2.28
2023-03-18T10:43:15.267Z,2.28
2023-03-18T10:46:18.520Z,2.38
2023-03-18T10:49:23.823Z,1.48
2023-03-18T10:52:33.602Z,1.60
2023-03-18T10:55:37.805Z,1.90
2023-03-18T10:58:40.586Z,1.58
2023-03-18T11:01:44.168Z,1.90
2023-03-18T11:04:51.103Z,2.17
2023-03-18T11:07:59.853Z,2.13
2023-03-18T11:11:20.985Z,1.67
2023-03-18T11:14:23.025Z,1.50
2023-03-18T11:17:35.287Z,1.77
2023-03-18T11:20:51.218Z,1.70
2023-03-18T11:24:10.685Z,1.73
2023-03-18T11:27:15.833Z,1.90
2023-03-18T11:30:34.030Z,1.65
2023-03-18T11:33:39.958Z,1.77
2023-03-18T11:36:52.052Z,1.98
2023-03-18T11:39:59.003Z,1.90
2023-03-18T11:43:02.752Z,1.80
2023-03-18T11:46:05.218Z,2.20
2023-03-18T11:49:09.421Z,1.67
2023-03-18T11:52:10.813Z,1.75
2023-03-18T11:55:12.176Z,2.45
2023-03-18T11:58:24.350Z,2.10
2023-03-18T12:01:44.735Z,1.90
2023-03-18T12:05:05.959Z,2.33
2023-03-18T12:08:10.560Z,1.90
2023-03-18T12:11:16.425Z,2.10
2023-03-18T12:14:22.433Z,1.88
2023-03-18T12:17:33.877Z,1.80
2023-03-18T12:20:55.021Z,1.70
2023-03-18T12:24:02.779Z,1.67
2023-03-18T12:27:07.308Z,1.80
2023-03-18T12:30:09.893Z,1.50
2023-03-18T12:33:20.573Z,1.70
2023-03-18T12:36:37.748Z,1.40
2023-03-18T12:39:52.180Z,1.10
2023-03-18T12:43:11.831Z,1.65
2023-03-18T12:46:22.445Z,1.55
2023-03-18T12:49:33.013Z,1.40
2023-03-18T12:53:08.724Z,1.55
2023-03-18T12:56:13.217Z,1.27
2023-03-18T12:59:18.282Z,2.50
2023-03-18T13:02:24.639Z,1.40
2023-03-18T13:05:46.164Z,1.70
2023-03-18T13:08:54.495Z,1.70
2023-03-18T13:11:55.777Z,1.42
2023-03-18T13:14:57.307Z,1.50
2023-03-18T13:18:17.506Z,1.52
2023-03-18T13:21:23.188Z,1.60
2023-03-18T13:24:27.585Z,1.42
2023-03-18T13:27:31.731Z,1.35
2023-03-18T13:30:35.924Z,1.67
2023-03-18T13:33:49.615Z,1.50
2023-03-18T13:37:07.325Z,1.30
2023-03-18T13:40:18.053Z,1.35
2023-03-18T13:43:20.998Z,1.55
2023-03-18T13:46:27.137Z,1.38
2023-03-18T13:49:30.349Z,1.75
2023-03-18T13:52:38.044Z,1.77
2023-03-18T13:55:39.909Z,1.60
2023-03-18T13:58:47.893Z,1.58
2023-03-18T14:01:50.695Z,1.90
2023-03-18T14:04:52.499Z,1.40
2023-03-18T14:07:55.107Z,2.10
2023-03-18T14:11:20.125Z,1.88
2023-03-18T14:14:42.569Z,1.50
2023-03-18T14:17:48.965Z,1.52
2023-03-18T14:20:54.103Z,1.60
2023-03-18T14:24:14.169Z,1.58
2023-03-18T14:27:17.436Z,2.00
2023-03-18T14:30:34.675Z,1.98
2023-03-18T14:33:47.417Z,1.55
2023-03-18T14:36:55.633Z,3.42
2023-03-18T14:40:13.730Z,1.80
2023-03-18T14:43:28.338Z,1.80
2023-03-18T14:46:32.958Z,1.85
2023-03-18T14:49:37.200Z,1.85
2023-03-18T14:52:39.588Z,1.98
2023-03-18T14:55:41.437Z,1.55
2023-03-18T14:58:44.607Z,2.25
2023-03-18T15:01:48.357Z,1.80
2023-03-18T15:07:53.432Z,2.15
2023-03-18T15:10:56.261Z,1.20
2023-03-18T15:14:00.045Z,2.33
2023-03-18T15:17:04.045Z,2.63
2023-03-18T15:20:05.729Z,2.00
2023-03-18T15:23:09.134Z,6.60
2023-03-18T15:26:21.553Z,3.90
2023-03-18T15:29:29.390Z,3.40
2023-03-18T15:32:32.028Z,2.70
2023-03-18T15:35:33.938Z,1.80
2023-03-18T15:38:35.584Z,1.90
2023-03-18T15:41:36.985Z,1.65
2023-03-18T15:44:39.338Z,1.92
2023-03-18T15:47:43.423Z,2.00
2023-03-18T15:50:55.284Z,1.75
2023-03-18T15:54:17.944Z,1.88
2023-03-18T15:57:38.125Z,2.00
2023-03-18T16:00:40.376Z,1.48
2023-03-18T16:03:42.309Z,2.20
2023-03-18T16:06:44.080Z,6.80
2023-03-18T16:09:45.692Z,7.63
2023-03-18T16:12:47.835Z,6.15
2023-03-18T16:15:49.244Z,11.77
2023-03-18T16:18:50.602Z,7.72
2023-03-18T16:21:52.415Z,7.78
2023-03-18T16:24:53.736Z,2.13
2023-03-18T16:27:56.254Z,2.13
2023-03-18T16:30:57.597Z,2.10
2023-03-18T16:33:59.317Z,2.33
2023-03-18T16:37:00.827Z,1.90
2023-03-18T16:40:02.545Z,2.00
2023-03-18T16:43:03.859Z,1.73
2023-03-18T16:46:06.293Z,2.10
2023-03-18T16:49:14.609Z,1.70
2023-03-18T16:52:16.078Z,1.95
2023-03-18T16:55:19.168Z,2.35
2023-03-18T16:58:22.903Z,2.47
2023-03-18T17:04:26.661Z,2.35
2023-03-18T17:07:29.509Z,2.30
2023-03-18T17:10:30.836Z,2.10
2023-03-18T17:13:34.223Z,2.03
2023-03-18T17:16:35.647Z,2.35
2023-03-18T17:19:37.063Z,2.05
2023-03-18T17:22:38.341Z,1.77
2023-03-18T17:25:48.304Z,1.63
2023-03-18T17:28:49.894Z,1.90
2023-03-18T17:31:51.746Z,2.70
2023-03-18T17:34:53.562Z,2.42
2023-03-18T17:37:55.436Z,3.33
2023-03-18T17:40:57.332Z,3.03
2023-03-18T17:43:58.656Z,3.38
2023-03-18T17:46:59.977Z,3.95
2023-03-18T17:50:01.500Z,2.90
2023-03-18T17:53:02.810Z,2.45
2023-03-18T17:56:05.008Z,2.17
2023-03-18T17:59:12.727Z,3.95
2023-03-18T18:02:17.639Z,3.47
2023-03-18T18:05:20.580Z,3.55
2023-03-18T18:08:22.936Z,3.92
2023-03-18T18:11:28.383Z,3.90
2023-03-18T18:14:32.056Z,3.30
2023-03-18T18:17:33.339Z,2.97
2023-03-18T18:20:34.583Z,2.97
2023-03-18T18:23:37.091Z,3.05
2023-03-18T18:26:38.376Z,3.53
2023-03-18T18:29:39.790Z,3.60
2023-03-18T18:32:41.205Z,3.22
2023-03-18T18:35:42.701Z,2.92
2023-03-18T18:38:43.979Z,3.10
2023-03-18T18:41:46.293Z,4.75
2023-03-18T18:44:47.985Z,3.38
2023-03-18T18:47:49.407Z,3.58
2023-03-18T18:50:51.391Z,3.30
2023-03-18T18:53:53.735Z,3.80
2023-03-18T18:56:56.354Z,2.88
2023-03-18T18:59:58.128Z,2.70
2023-03-18T19:02:59.460Z,3.50
2023-03-18T19:06:01.307Z,3.90
2023-03-18T19:09:05.063Z,3.58
2023-03-18T19:12:11.705Z,4.15
2023-03-18T19:15:15.458Z,3.88
2023-03-18T19:18:24.727Z,5.70
2023-03-18T19:21:26.998Z,5.10
2023-03-18T19:24:30.284Z,7.18
2023-03-18T19:27:32.315Z,5.82
2023-03-18T19:30:33.955Z,5.00
2023-03-18T19:33:35.529Z,4.07
2023-03-18T19:36:39.595Z,4.05
2023-03-18T19:39:42.028Z,4.35
2023-03-18T19:42:55.802Z,3.63
2023-03-18T19:45:57.192Z,3.15
2023-03-18T19:48:58.570Z,4.20
2023-03-18T19:51:59.894Z,3.72
2023-03-18T19:55:08.149Z,3.47
2023-03-18T19:58:19.620Z,3.78
2023-03-18T20:01:22.058Z,4.63
2023-03-18T20:04:26.300Z,4.75
2023-03-18T20:07:29.069Z,4.60
2023-03-18T20:10:31.214Z,4.88
2023-03-18T20:13:32.521Z,4.38
2023-03-18T20:16:33.835Z,4.85
2023-03-18T20:19:35.186Z,4.80
2023-03-18T20:22:37.543Z,4.40
2023-03-18T20:25:42.180Z,5.15
2023-03-18T20:28:45.501Z,4.78
2023-03-18T20:31:47.141Z,5.22
2023-03-18T20:34:48.842Z,4.63
2023-03-18T20:37:50.280Z,4.35
2023-03-18T20:40:51.604Z,4.80
2023-03-18T20:43:52.937Z,4.93
2023-03-18T20:46:55.343Z,4.68
2023-03-18T20:49:56.751Z,4.95
2023-03-18T20:52:58.733Z,5.47
2023-03-18T20:56:00.076Z,5.15
2023-03-18T20:59:04.157Z,5.15
2023-03-18T21:02:20.739Z,5.68
2023-03-18T21:05:22.305Z,5.57
2023-03-18T21:08:24.314Z,5.25
2023-03-18T21:11:29.635Z,5.07
2023-03-18T21:14:31.561Z,6.03
2023-03-18T21:17:33.048Z,5.10
2023-03-18T21:20:35.618Z,4.80
2023-03-18T21:23:36.926Z,4.80
2023-03-18T21:26:38.541Z,4.57
2023-03-18T21:29:39.812Z,4.45
2023-03-18T21:32:42.501Z,4.47
2023-03-18T21:35:43.931Z,4.55
2023-03-18T21:38:45.752Z,4.55
2023-03-18T21:41:47.059Z,4.63
2023-03-18T21:44:48.488Z,4.78
2023-03-18T21:47:50.029Z,4.72
2023-03-18T21:50:51.733Z,4.28
2023-03-18T21:53:53.703Z,4.28
2023-03-18T21:56:55.235Z,4.35
2023-03-18T21:59:56.536Z,4.68
2023-03-18T22:02:58.474Z,4.20
2023-03-18T22:05:59.822Z,4.25
2023-03-18T22:09:01.565Z,4.38
2023-03-18T22:12:03.091Z,4.32
2023-03-18T22:15:09.873Z,4.68
2023-03-18T22:18:11.519Z,4.28
2023-03-18T22:21:33.154Z,4.88
2023-03-18T22:24:34.462Z,4.18
2023-03-18T22:27:35.826Z,4.10
2023-03-18T22:30:37.549Z,4.45
2023-03-18T22:33:38.859Z,4.13
2023-03-18T22:36:40.131Z,3.72
2023-03-18T22:39:42.879Z,3.65
2023-03-18T22:42:45.166Z,4.22
2023-03-18T22:45:46.467Z,3.33
2023-03-18T22:48:47.824Z,3.00
2023-03-18T22:51:49.136Z,3.83
2023-03-18T22:54:55.432Z,3.55
2023-03-18T22:57:57.159Z,3.75
2023-03-18T23:00:58.444Z,2.80
2023-03-18T23:04:00.107Z,3.28
2023-03-18T23:07:01.562Z,3.40
2023-03-18T23:10:04.591Z,3.95
2023-03-18T23:13:11.053Z,4.15
2023-03-18T23:16:16.539Z,3.80
2023-03-18T23:19:17.860Z,4.47
2023-03-18T23:22:22.890Z,3.95
2023-03-18T23:25:24.176Z,4.30
2023-03-18T23:28:25.838Z,3.58
2023-03-18T23:31:27.280Z,4.60
2023-03-18T23:34:28.629Z,3.90
2023-03-18T23:37:29.943Z,4.07
2023-03-18T23:40:31.332Z,3.92
2023-03-18T23:43:32.587Z,3.70
2023-03-18T23:46:33.926Z,3.90
2023-03-18T23:49:35.575Z,3.85
2023-03-18T23:52:37.252Z,4.00
2023-03-18T23:55:38.614Z,4.55
2023-03-18T23:58:39.921Z,3.63
